Aeroporto :
LOGIN :

Iscrizione | Disclaimer

   EN    FR    IT 

 










Sommario :    VFR   VFR Marginale   IFR   IFR Intensivo   IFR Molto Intensivo
Visibilità : 
Base nubi : 
>= 8 km
>= 3000ft
5 / 8 km
1000 / 3000 ft
1500m / 5 km
500 / 1000 ft
800 / 1500m
200 / 500 ft
< 800m
< 200 ft
Simboli :   Temporali  Nebbia  Neve Forte  Precipitazioni Forti  Vento > 20 kt
SIGMETs :   Varie  Temporali  Ghiacco  Turbolenza  Onda orograficha  Ceneri Vulcaniche






- Altitudine del aeroporto : 20 ft
- Codice IATA : LSI


EGPB - Sumburgh

ULTIMO METAR :
  • 310320Z AUTO 14007KT 9999 NCD 09/08 Q1029

METARs OBSOLETI :
  • 310250Z AUTO 14008KT 9999 FEW001/// 08/08 Q1029
  • 310220Z AUTO 12007KT 1500 BR OVC001/// 08/08 Q1029
  • 310150Z AUTO 13008KT 1100 BR OVC001/// 08/07 Q1030
  • 310120Z AUTO 12007KT 0750 FG OVC001/// 08/07 Q1030
  • 310050Z AUTO 14005KT 1700 BR OVC001/// 08/07 Q1030

TAF TAF EGPB
Valido dal 31 a 03 ore il 31 a 12 ore UTC


310154Z 3103/3112 15009KT 0300 FG VV///
BECMG 3103/3106 9999 NSW FEW006
PROB40
TEMPO 3106/3109 5000 BR BKN004



MetMap, La meteo Aeronautica in un colpo d'occhio ! - Copyright ORBIFLY Dicembre 2007 - Disclaimer

ORBIFLY MET'MAP TEAM :

Programmazione e sviluppo : Alexandra Zaïnal
Concezione : Baudouin d'Aumeries
Aiuto per la programmazione : Marc-Olivier Méhu
Supporto tecnico e logistico : Manuel Goepfert
Aiuto per la traduzione : Arnaldo La Scala

Contatto : metmap@orbifly.com




FONTI E CREDITI :

   NOAA